Hidden Valley, Valles Caldera, New Mexico Weather observations

Data are for 10 minute period ending at time listed.
 Day   Time   Solar   Ave.   Ave.  Ave.  Vector  Max.   Baro.   Total    
  of    of     Rad.   Air    Rel.  Wind   Wind   Wind  Press.  Precip.   
Year   Day            Temp.  Hum.  Speed  Dir.   Gust                    
2015   (MST)  Kw/m2    F      %     mph   deg.    mph    mb.     in.     
-------------------------------------------------------------------------
  25    5:30   100.00  99999.0   99999  99999.0   99999   99999.0   99999.0   99999.00 
  25    5:40   100.00  99999.0   99999  99999.0   99999   99999.0   99999.0   99999.00 
  25    5:50   100.00  99999.0   99999  99999.0   99999   99999.0   99999.0   99999.00 
  25    6:00   100.00  99999.0   99999  99999.0   99999   99999.0   99999.0   99999.00 
  25    6:10   100.00  99999.0   99999  99999.0   99999   99999.0   99999.0   99999.00 
  25    6:20   100.00  99999.0   99999  99999.0   99999   99999.0   99999.0   99999.00 
  25    6:30   100.00  99999.0   99999  99999.0   99999   99999.0   99999.0   99999.00 
  25    6:40   100.00  99999.0   99999  99999.0   99999   99999.0   99999.0   99999.00 
  25    6:50   100.00  99999.0   99999  99999.0   99999   99999.0   99999.0   99999.00 
  25    7:00   100.00  99999.0   99999  99999.0   99999   99999.0   99999.0   99999.00 
  25    7:10   100.00  99999.0   99999  99999.0   99999   99999.0   99999.0   99999.00 
  25    7:20   100.00  99999.0   99999  99999.0   99999   99999.0   99999.0   99999.00 
  25    7:30   2.52    0.6    88    0.5   258     1.1   750.1    0.00 
  25    7:40   3.40    0.6    87    0.5   159     0.9   750.2    0.00 
  25    7:50   3.16    0.5    88    0.3   178     0.9   750.3    0.00 
  25    8:00   2.13    2.1    88    0.1    41     0.5   750.4    0.00 
  25    8:10   1.98    6.7    84    0.0     0     0.0   750.5    0.00 
  25    8:20   2.38   74.1    25    0.2    26   291.6   2011.6    1.57 
  25    8:30   1.79   11.9    73    0.4   357     1.4   750.5    0.00 
  25    8:40   1.28   15.6    66    0.1   172     0.7   750.5    0.00 
  25    8:50   0.74   15.2    69    0.2   188     0.8   750.5    0.00 
  25    9:00   0.93   17.5    68    0.4   348     0.9   750.4    0.00 
  25    9:10   0.39   21.3    64    0.2   359     0.8   750.4    0.00 
  25    9:20   0.38   22.3    61    0.8    30     1.4   750.5    0.00 
  25    9:30   0.40   24.3    58    0.4    90     1.1   750.4    0.00 
  25    9:40   0.43   26.4    57    0.4   146     0.9   750.4    0.00 
  25    9:50   0.46   28.5    53    0.2    93     1.0   750.5    0.00 
  25   10:00   0.48   28.9    53    0.5   285     1.3   750.5    0.00 
  25   10:10   0.51   29.8    51    0.6   293     1.6   750.5    0.00 
  25   10:20   0.53   34.7    43    0.4    57     1.3   750.4    0.00 
  25   10:30   0.55   36.0    43    0.6   148     1.5   750.2    0.00 
  25   10:40   0.57   36.2    40    1.4    23     2.0   750.2    0.00 
  25   10:50   0.58   36.9    42    1.0    32     1.9   750.2    0.00 
  25   11:00   0.60   39.2    38    0.6     9     1.2   750.2    0.00 
  25   11:10   0.61   42.6    33    0.6    13     1.1   750.2    0.00 
  25   11:20   0.63   43.6    31    0.4    14     1.4   750.1    0.00 
  25   11:30   0.64   44.9    31    0.9    26     2.1   750.0    0.00 
  25   11:40   0.65   42.7    35    1.1    48     2.0   750.0    0.00 
  25   11:50   0.65   44.1    34    0.9     8     1.7   749.9    0.00 
  25   12:00   0.66   47.2    31    0.5   356     1.2   749.8    0.00 
  25   12:10   0.66   48.0    31    0.4    10     1.1   749.6    0.00 
  25   12:20   0.66   49.5    31    0.9     3     3.2   749.5    0.00 
  25   12:30   0.66   48.6    27    3.1   182     4.8   749.2    0.00 
  25   12:40   0.66   47.7    28    3.9   187     6.2   749.0    0.00 
  25   12:50   0.66   47.9    28    3.9   191     5.8   749.0    0.00 
  25   13:00   0.65   47.9    28    3.8   182     5.4   749.0    0.00 
  25   13:10   0.64   48.1    27    3.7   181     5.0   748.9    0.00 
  25   13:20   0.63   48.5    27    3.2   187     5.2   748.8    0.00 
  25   13:30   0.62   49.1    29    2.9   161     4.9   748.8    0.00 
  25   13:40   0.61   47.7    36    4.0   145     5.7   748.7    0.00 
  25   13:50   0.59   46.8    38    4.5   142     6.2   748.6    0.00 
  25   14:00   0.58   46.6    38    4.2   140     5.9   748.6    0.00 
  25   14:10   0.56   46.2    40    4.4   143     6.3   748.6    0.00 
  25   14:20   0.54   46.6    38    3.9   141     5.7   748.5    0.00 
  25   14:30   0.52   48.3    34    2.7   144     4.7   748.5    0.00 
  25   14:40   0.50   50.1    30    2.6   168     4.4   748.4    0.00 
  25   14:50   0.47   50.2    27    3.4   203     5.5   748.4    0.00 
  25   15:00   0.45   50.0    28    3.2   199     5.2   748.6    0.00 
  25   15:10   0.42   50.0    30    3.1   163     4.9   748.6    0.00 
  25   15:20   0.39   48.0    36    4.2   143     5.5   748.7    0.00 
  25   15:30   0.36   47.8    37    3.7   144     5.0   748.7    0.00 
  25   15:40   0.34   47.6    37    4.2   141     5.7   748.7    0.00 
  25   15:50   0.31   46.9    38    3.5   154     5.5   748.6    0.00 
  25   16:00   0.28   47.6    36    3.3   163     5.3   748.7    0.00 
  25   16:10   0.24   47.3    35    3.2   175     4.7   748.7    0.00 
  25   16:20   0.21   46.8    36    3.1   167     4.3   748.8    0.00 
  25   16:30   0.18   45.4    41    3.3   146     4.3   748.8    0.00 
  25   16:40   0.15   44.2    43    3.5   146     4.6   748.9    0.00 
  25   16:50   0.06   42.9    45    2.9   159     4.4   749.0    0.00 
  25   17:00   0.02   40.9    48    3.0   150     4.3   749.1    0.00 
  25   17:10   0.01   39.4    51    2.0   189     4.1   749.3    0.00 
  25   17:20   0.01   37.3    55    1.0   211     2.3   749.4    0.00 
  25   17:30   0.01   35.9    58    1.3   216     2.4   749.5    0.00 
  25   17:40   0.00   33.7    66    0.6   184     1.4   749.6    0.00 
  25   17:50   0.00   31.2    72    0.4   280     1.2   749.8    0.00 
  25   18:00   0.00   29.3    76    0.0   266     0.3   749.9    0.00 
  25   18:10   0.00   27.9    79    0.3   158     1.0   750.0    0.00 
  25   18:20   0.00   26.3    82    0.8   159     1.5   750.2    0.00 
  25   18:30   0.00   26.1    83    0.5   274     1.1   750.3    0.00 
  25   18:40   0.00   25.3    85    0.3   184     1.1   750.4    0.00 
  25   18:50   0.00   24.5    84    0.6   103     1.0   750.3    0.00 
  25   19:00   0.00   23.1    88    1.1   335     2.0   750.4    0.00 
  25   19:10   0.00   22.7    89    0.8   145     1.6   750.3    0.00 
  25   19:20   0.00   21.3    90    0.7     5     1.6   750.5    0.00 
  25   19:30   0.00   20.8    92    0.4   339     0.8   750.6    0.00 
  25   19:40   0.00   20.2    92    0.3   126     0.8   750.6    0.00 
  25   19:50   0.00   20.4    94    0.3   148     0.8   750.6    0.00 
  25   20:00   0.00   19.6    92    0.7   271     1.5   750.6    0.00 
  25   20:10   0.00   19.2    94    0.8   160     1.5   750.7    0.00 
  25   20:20   0.00   18.3    92    0.7    27     1.3   750.7    0.00 
  25   20:30   0.00   17.9    94    0.1   258     0.5   750.7    0.00 
  25   20:40   0.00   17.9    94    0.2   259     0.6   750.8    0.00 
  25   20:50   0.00   17.3    94    0.2    56     0.8   750.9    0.00 
  25   21:00   0.00   16.6    94    0.5    34     1.0   751.1    0.00 
  25   21:10   0.28   16.2    94    0.5   187     1.3   751.3    0.00 
  25   21:20   1.05   16.2    95    0.5   193     0.9   751.4    0.00 
  25   21:30   1.06   18.1    96    0.8   202     1.3   751.6    0.00 
  25   21:40   1.08   19.7    91    1.1   189     1.6   751.6    0.00 
  25   21:50   1.08   19.3    91    0.8   198     1.7   751.6    0.00 
  25   22:00   1.07   18.4    89    1.3   326     2.1   751.6    0.00 
  25   22:10   1.08   16.2    90    0.7    60     1.6   751.6    0.00 
  25   22:20   1.08   16.1    93    0.7    23     1.8   751.6    0.00 
  25   22:30   1.09   16.5    92    0.4   200     0.8   751.6    0.00 
  25   22:40   1.10   16.6    92    0.8   193     1.3   751.6    0.00 
  25   22:50   1.12   15.1    91    0.7    25     1.3   751.8    0.00 
  25   23:00   1.10   14.5    93    0.5   339     1.5   752.0    0.00 
  25   23:10   1.08   14.5    93    1.2   201     2.1   752.1    0.00 
  25   23:20   1.07   16.7    95    0.9   187     1.8   752.2    0.00 
  25   23:30   1.11   15.9    91    0.6   170     1.2   752.1    0.00 
  25   23:40   1.10   15.0    91    1.4    27     2.5   752.3    0.00 
  25   23:50   1.08   14.0    92    0.8    58     2.0   752.4    0.00 
  26    0:00   0.99   14.4    93    0.4   239     1.2   752.4    0.00 
  26    0:10   0.96   14.8    93    1.3   194     2.0   752.4    0.00 
  26    0:20   0.98   15.6    91    0.7   178     1.7   752.4    0.00 
  26    0:30   0.99   15.5    92    0.4   192     0.9   752.4    0.00 
  26    0:40   1.01   13.8    89    0.6    20     1.4   752.4    0.00 
  26    0:50   0.97   13.3    92    0.3   202     1.1   752.4    0.00 
  26    1:00   0.97   13.2    92    0.2   123     0.7   752.4    0.00 
  26    1:10   0.97   12.5    92    0.4   333     1.0   752.4    0.00 
  26    1:20   0.97   12.4    93    0.9   353     1.6   752.3    0.00 
  26    1:30   0.98   12.5    94    1.2   198     1.7   752.4    0.00 
  26    1:40   0.99   14.1    94    0.9   181     1.7   752.3    0.00 
  26    1:50   1.02   12.4    90    1.0    28     1.5   752.4    0.00 
  26    2:00   1.11   11.5    91    0.5     6     1.7   752.6    0.00 
  26    2:10   1.10   12.0    93    0.3   180     1.0   752.6    0.00 
  26    2:20   1.18   11.3    92    0.8   178     1.2   752.6    0.00 
  26    2:30   1.20   11.3    92    0.1   102     0.8   752.7    0.00 
  26    2:40   1.12   10.9    92    0.1   255     0.5   752.8    0.00 
  26    2:50   1.14   10.9    93    0.1   202     1.1   752.8    0.00 
  26    3:00   1.18   10.8    93    0.6   185     1.7   752.7    0.00 
  26    3:10   1.18   11.2    94    0.4   359     1.3   752.8    0.00 
  26    3:20   1.19   10.5    92    0.1   338     0.3   752.7    0.00 
  26    3:30   1.21   10.6    93    0.5   303     1.5   752.7    0.00 
  26    3:40   1.17   10.6    92    1.1    57     1.8   752.7    0.00 
  26    3:50   1.15   10.2    93    0.4   229     0.8   752.8    0.00 
  26    4:00   1.10   10.4    93    1.1   208     1.9   752.8    0.00 
  26    4:10   1.08   10.9    94    0.3   190     1.0   752.8    0.00 
  26    4:20   1.08   10.4    92    0.5     7     1.0   752.8    0.00 
  26    4:30   1.01    9.9    92    0.3    59     0.8   752.8    0.00 
  26    4:40   0.87    9.6    92    0.3   300     0.8   752.9    0.00 
  26    4:50   0.82    9.3    92    0.3   249     0.8   753.0    0.00 
  26    5:00   0.84    9.1    92    0.6   191     1.5   752.9    0.00 
  26    5:10   0.83    8.4    91    0.5   342     1.2   753.0    0.00 
  26    5:20   0.82    8.3    92    0.3   247     0.8   753.0    0.00 

Return to Hidden Valley, Valles Caldera graphs page.


Western Regional Climate Center,wrcc@dri.edu